Meteo Giornale » Osservazioni meteo Italia » Bari-Palese Macchie

ore: 03:20 - Osservazioni Meteo Bari-Palese Macchie
Lat. 41° 8' N Lon. 16° 47' E Alt. 34 metri s.l.m.

sereno Europe/Rome

22 °C

Sereno

Temp. 24 Ore

21 °C

30 °C

Ovest

13 Km/h

Dew point 15 °C

Umidità 64 %

Visibilità  10 Km

Il sole sorge alle ore 06:03

Il sole tramonta alle ore 19:50

Data e Ora Cielo e Fenomeni T °C DP °C Um. % Pres. hPa Vis. km Vento km/h
Oggi h: 03:20 sereno Sereno 22 15 64 1015 10 O 13
Oggi h: 02:50 sereno Sereno 22 14 60 1015 10 O 14.8
Oggi h: 02:20 sereno Sereno 22 14 60 1015 10 O 9.3
Oggi h: 01:50 sereno Sereno 21 15 68 1015 10 O/SO 9.3
Oggi h: 01:20 sereno Sereno 21 15 68 1015 10 SO 11.1
Oggi h: 00:50 sereno Sereno 22 18 78 1016 10 O/SO 7.4
Oggi h: 00:20 sereno Sereno 24 21 83 1016 10 N 7.4
Ieri h: 23:50 sereno Sereno 25 21 78 1016 10 N 7.4
Ieri h: 23:20 sereno Sereno 25 19 69 1016 10 N/NE 9.3
Ieri h: 22:50 sereno Sereno 23 15 60 1016 10 N 3.7
Ieri h: 22:20 sereno Sereno 24 15 57 1016 10 N/NE 7.4
Ieri h: 21:50 sereno Sereno 24 15 57 1015 10 O 9.3
Ieri h: 21:20 sereno Sereno 25 15 53 1015 10 O 9.3
Ieri h: 20:50 sereno Sereno 24 16 60 1015 10 O 7.4
Ieri h: 20:20 sereno Sereno 26 17 57 1015 10 NO 7.4
Ieri h: 19:50 sereno Sereno 27 17 54 1015 10 N 5.5
Ieri h: 19:20 sereno Sereno 28 18 54 1015 10 N 5.5
Ieri h: 18:20 sereno Sereno 28 19 58 1015 10 N 9.3
Ieri h: 17:50 sereno Sereno 28 18 54 1015 10 N/NE 13
Ieri h: 17:20 sereno Sereno 28 20 61 1015 10 N/NE 13
Ieri h: 16:50 sereno Sereno 28 20 61 1015 10 NE 18.5
Ieri h: 16:20 sereno Sereno 28 19 58 1016 10 NE 18.5
Ieri h: 15:50 sereno Sereno 28 20 61 1016 10 N/NE 16.7
Ieri h: 15:20 sereno Sereno 28 20 61 1016 10 N/NE 18.5
Ieri h: 14:50 sereno Sereno 28 19 58 1016 10 N/NE 18.5
Ieri h: 14:20 sereno Sereno 29 19 54 1016 10 N 20.3
Ieri h: 13:50 sereno Sereno 29 17 48 1016 10 N 20.3
Ieri h: 13:20 sereno Sereno 30 16 42 1017 10 N 20.3
Ieri h: 12:50 sereno Sereno 30 16 42 1017 10 N/NE 16.7
Ieri h: 12:20 sereno Sereno 29 15 42 1017 10 N 14.8
Ieri h: 11:50 sereno Sereno 29 16 45 1017 10 N/NE 14.8
Ieri h: 11:20 sereno Sereno 28 17 51 1017 10 N 14.8
Ieri h: 10:50 sereno Sereno 28 17 51 1017 10 N 20.3
Ieri h: 10:20 sereno Sereno 28 15 45 1017 10 N 16.7
Ieri h: 09:50 sereno Sereno 28 14 42 1017 10 N/NO 13
Ieri h: 09:20 sereno Sereno 28 13 39 1017 10 NO 14.8
Ieri h: 08:50 sereno Sereno 27 13 42 1017 10 N/NO 11.1
Ieri h: 08:20 sereno Sereno 26 14 47 1017 10 N/NO 7.4
Ieri h: 07:50 sereno Sereno 25 14 50 1017 10 N 5.5
Ieri h: 07:20 sereno Sereno 22 13 56 1017 10 N 0
Ieri h: 06:50 sereno Sereno 21 13 60 1016 10 N 3.7
Ieri h: 06:20 sereno Sereno 21 13 60 1016 10 N 3.7
Ieri h: 05:50 sereno Sereno 23 13 53 1016 10 O/NO 7.4
Ieri h: 05:20 sereno Sereno 23 13 53 1016 10 O/NO 14.8
Ieri h: 04:50 sereno Sereno 23 12 49 1016 10 O 14.8
Ieri h: 03:50 sereno Sereno 22 13 56 1016 10 O/NO 14.8